sensor_id;sensor_type;location;lat;lon;timestamp;P1;durP1;ratioP1;P2;durP2;ratioP2
73900;SDS011;62235;52.160;7.526;2023-12-14T00:01:22;9.30;;;4.13;;
73900;SDS011;62235;52.160;7.526;2023-12-14T00:03:49;8.18;;;4.43;;
73900;SDS011;62235;52.160;7.526;2023-12-14T00:06:15;10.15;;;5.18;;
73900;SDS011;62235;52.160;7.526;2023-12-14T00:08:41;9.20;;;4.82;;
73900;SDS011;62235;52.160;7.526;2023-12-14T00:11:08;9.73;;;4.75;;
73900;SDS011;62235;52.160;7.526;2023-12-14T00:13:35;8.75;;;4.57;;
73900;SDS011;62235;52.160;7.526;2023-12-14T00:16:01;7.82;;;3.90;;
73900;SDS011;62235;52.160;7.526;2023-12-14T00:18:28;8.68;;;4.20;;
73900;SDS011;62235;52.160;7.526;2023-12-14T00:20:54;9.77;;;4.38;;
73900;SDS011;62235;52.160;7.526;2023-12-14T00:23:21;8.25;;;4.53;;
73900;SDS011;62235;52.160;7.526;2023-12-14T00:25:47;7.78;;;3.90;;
73900;SDS011;62235;52.160;7.526;2023-12-14T00:28:13;8.93;;;4.65;;
73900;SDS011;62235;52.160;7.526;2023-12-14T00:30:40;11.85;;;5.35;;
73900;SDS011;62235;52.160;7.526;2023-12-14T00:33:06;9.55;;;5.18;;
73900;SDS011;62235;52.160;7.526;2023-12-14T00:35:32;12.68;;;5.63;;
73900;SDS011;62235;52.160;7.526;2023-12-14T00:37:59;13.10;;;6.93;;
73900;SDS011;62235;52.160;7.526;2023-12-14T00:40:25;10.77;;;5.43;;
73900;SDS011;62235;52.160;7.526;2023-12-14T00:42:51;12.60;;;5.78;;
73900;SDS011;62235;52.160;7.526;2023-12-14T00:45:17;10.52;;;5.07;;
73900;SDS011;62235;52.160;7.526;2023-12-14T00:47:44;10.18;;;5.07;;
73900;SDS011;62235;52.160;7.526;2023-12-14T00:50:10;10.93;;;5.53;;
73900;SDS011;62235;52.160;7.526;2023-12-14T00:52:36;8.82;;;4.70;;
73900;SDS011;62235;52.160;7.526;2023-12-14T00:55:03;9.00;;;4.82;;
73900;SDS011;62235;52.160;7.526;2023-12-14T00:57:30;9.85;;;4.93;;
73900;SDS011;62235;52.160;7.526;2023-12-14T00:59:56;9.63;;;4.60;;
73900;SDS011;62235;52.160;7.526;2023-12-14T01:02:22;9.10;;;5.18;;
73900;SDS011;62235;52.160;7.526;2023-12-14T01:04:49;9.77;;;4.80;;
73900;SDS011;62235;52.160;7.526;2023-12-14T01:07:15;8.85;;;4.68;;
73900;SDS011;62235;52.160;7.526;2023-12-14T01:09:41;9.55;;;4.78;;
73900;SDS011;62235;52.160;7.526;2023-12-14T01:12:07;8.55;;;4.45;;
73900;SDS011;62235;52.160;7.526;2023-12-14T01:14:34;8.15;;;4.70;;
73900;SDS011;62235;52.160;7.526;2023-12-14T01:17:00;7.88;;;3.63;;
73900;SDS011;62235;52.160;7.526;2023-12-14T01:19:26;6.97;;;3.42;;
73900;SDS011;62235;52.160;7.526;2023-12-14T01:21:53;8.55;;;3.58;;
73900;SDS011;62235;52.160;7.526;2023-12-14T01:24:19;6.80;;;3.85;;
73900;SDS011;62235;52.160;7.526;2023-12-14T01:26:45;7.15;;;3.40;;
73900;SDS011;62235;52.160;7.526;2023-12-14T01:29:11;7.13;;;3.40;;
73900;SDS011;62235;52.160;7.526;2023-12-14T01:31:38;6.38;;;3.35;;
73900;SDS011;62235;52.160;7.526;2023-12-14T01:34:04;7.72;;;3.55;;
73900;SDS011;62235;52.160;7.526;2023-12-14T01:36:31;5.00;;;2.83;;
73900;SDS011;62235;52.160;7.526;2023-12-14T01:38:57;7.13;;;3.50;;
73900;SDS011;62235;52.160;7.526;2023-12-14T01:41:23;6.78;;;3.38;;
73900;SDS011;62235;52.160;7.526;2023-12-14T01:43:50;5.68;;;3.30;;
73900;SDS011;62235;52.160;7.526;2023-12-14T01:46:16;8.07;;;4.00;;
73900;SDS011;62235;52.160;7.526;2023-12-14T01:48:42;11.02;;;5.00;;
73900;SDS011;62235;52.160;7.526;2023-12-14T01:51:09;9.20;;;4.07;;
73900;SDS011;62235;52.160;7.526;2023-12-14T01:53:35;8.50;;;4.78;;
73900;SDS011;62235;52.160;7.526;2023-12-14T01:56:01;9.07;;;4.65;;
73900;SDS011;62235;52.160;7.526;2023-12-14T01:58:28;8.85;;;4.38;;
73900;SDS011;62235;52.160;7.526;2023-12-14T02:03:21;8.70;;;4.43;;
73900;SDS011;62235;52.160;7.526;2023-12-14T02:05:47;9.13;;;4.60;;
73900;SDS011;62235;52.160;7.526;2023-12-14T02:08:13;8.55;;;4.78;;
73900;SDS011;62235;52.160;7.526;2023-12-14T02:10:40;8.77;;;4.40;;
73900;SDS011;62235;52.160;7.526;2023-12-14T02:13:06;7.88;;;4.63;;
73900;SDS011;62235;52.160;7.526;2023-12-14T02:15:32;7.90;;;4.60;;
73900;SDS011;62235;52.160;7.526;2023-12-14T02:17:59;7.68;;;4.00;;
73900;SDS011;62235;52.160;7.526;2023-12-14T02:20:25;9.13;;;4.20;;
73900;SDS011;62235;52.160;7.526;2023-12-14T02:22:52;8.82;;;4.50;;
73900;SDS011;62235;52.160;7.526;2023-12-14T02:25:19;7.30;;;4.05;;
73900;SDS011;62235;52.160;7.526;2023-12-14T02:27:46;8.57;;;4.43;;
73900;SDS011;62235;52.160;7.526;2023-12-14T02:30:12;7.72;;;3.90;;
73900;SDS011;62235;52.160;7.526;2023-12-14T02:32:39;8.75;;;4.05;;
73900;SDS011;62235;52.160;7.526;2023-12-14T02:35:05;7.65;;;4.35;;
73900;SDS011;62235;52.160;7.526;2023-12-14T02:37:32;9.15;;;4.35;;
73900;SDS011;62235;52.160;7.526;2023-12-14T02:39:59;6.90;;;3.55;;
73900;SDS011;62235;52.160;7.526;2023-12-14T02:42:26;9.15;;;3.53;;
73900;SDS011;62235;52.160;7.526;2023-12-14T02:44:53;6.20;;;3.85;;
73900;SDS011;62235;52.160;7.526;2023-12-14T02:47:19;6.47;;;3.33;;
73900;SDS011;62235;52.160;7.526;2023-12-14T02:49:45;8.02;;;3.20;;
73900;SDS011;62235;52.160;7.526;2023-12-14T02:52:11;5.80;;;3.53;;
73900;SDS011;62235;52.160;7.526;2023-12-14T02:54:38;7.45;;;3.90;;
73900;SDS011;62235;52.160;7.526;2023-12-14T02:57:05;5.82;;;3.15;;
73900;SDS011;62235;52.160;7.526;2023-12-14T02:59:31;8.50;;;4.13;;
73900;SDS011;62235;52.160;7.526;2023-12-14T03:01:57;6.30;;;3.90;;
73900;SDS011;62235;52.160;7.526;2023-12-14T03:04:24;5.35;;;3.33;;
73900;SDS011;62235;52.160;7.526;2023-12-14T03:06:50;8.18;;;4.00;;
73900;SDS011;62235;52.160;7.526;2023-12-14T03:09:16;7.38;;;3.78;;
73900;SDS011;62235;52.160;7.526;2023-12-14T03:11:42;8.50;;;3.80;;
73900;SDS011;62235;52.160;7.526;2023-12-14T03:14:08;6.47;;;3.63;;
73900;SDS011;62235;52.160;7.526;2023-12-14T03:16:35;6.95;;;3.70;;
73900;SDS011;62235;52.160;7.526;2023-12-14T03:19:01;7.35;;;3.97;;
73900;SDS011;62235;52.160;7.526;2023-12-14T03:21:28;9.38;;;4.00;;
73900;SDS011;62235;52.160;7.526;2023-12-14T03:23:54;8.45;;;3.60;;
73900;SDS011;62235;52.160;7.526;2023-12-14T03:26:20;7.88;;;4.05;;
73900;SDS011;62235;52.160;7.526;2023-12-14T03:28:46;6.90;;;3.70;;
73900;SDS011;62235;52.160;7.526;2023-12-14T03:31:14;7.47;;;4.07;;
73900;SDS011;62235;52.160;7.526;2023-12-14T03:33:42;6.40;;;3.92;;
73900;SDS011;62235;52.160;7.526;2023-12-14T03:36:09;7.53;;;4.20;;
73900;SDS011;62235;52.160;7.526;2023-12-14T03:38:36;8.20;;;4.30;;
73900;SDS011;62235;52.160;7.526;2023-12-14T03:41:02;6.60;;;3.85;;
73900;SDS011;62235;52.160;7.526;2023-12-14T03:43:28;9.07;;;4.00;;
73900;SDS011;62235;52.160;7.526;2023-12-14T03:45:55;7.63;;;4.20;;
73900;SDS011;62235;52.160;7.526;2023-12-14T03:48:21;8.50;;;4.43;;
73900;SDS011;62235;52.160;7.526;2023-12-14T03:50:47;8.70;;;4.40;;
73900;SDS011;62235;52.160;7.526;2023-12-14T03:53:14;8.88;;;4.82;;
73900;SDS011;62235;52.160;7.526;2023-12-14T03:55:40;7.93;;;4.72;;
73900;SDS011;62235;52.160;7.526;2023-12-14T03:58:06;7.20;;;4.32;;
73900;SDS011;62235;52.160;7.526;2023-12-14T04:00:33;7.28;;;4.30;;
73900;SDS011;62235;52.160;7.526;2023-12-14T04:02:59;7.72;;;4.40;;
73900;SDS011;62235;52.160;7.526;2023-12-14T04:05:25;8.07;;;4.53;;
73900;SDS011;62235;52.160;7.526;2023-12-14T04:07:52;9.02;;;5.03;;
73900;SDS011;62235;52.160;7.526;2023-12-14T04:10:18;8.63;;;4.30;;
73900;SDS011;62235;52.160;7.526;2023-12-14T04:12:44;9.15;;;5.05;;
73900;SDS011;62235;52.160;7.526;2023-12-14T04:15:11;9.60;;;4.63;;
73900;SDS011;62235;52.160;7.526;2023-12-14T04:17:37;8.32;;;4.78;;
73900;SDS011;62235;52.160;7.526;2023-12-14T04:20:05;9.02;;;5.43;;
73900;SDS011;62235;52.160;7.526;2023-12-14T04:22:31;12.45;;;5.50;;
73900;SDS011;62235;52.160;7.526;2023-12-14T04:24:58;9.90;;;5.10;;
73900;SDS011;62235;52.160;7.526;2023-12-14T04:27:24;11.18;;;5.65;;
73900;SDS011;62235;52.160;7.526;2023-12-14T04:29:51;9.75;;;5.30;;
73900;SDS011;62235;52.160;7.526;2023-12-14T04:32:17;11.98;;;5.90;;
73900;SDS011;62235;52.160;7.526;2023-12-14T04:34:43;11.18;;;5.40;;
73900;SDS011;62235;52.160;7.526;2023-12-14T04:37:09;10.07;;;5.63;;
73900;SDS011;62235;52.160;7.526;2023-12-14T04:39:36;10.15;;;5.63;;
73900;SDS011;62235;52.160;7.526;2023-12-14T04:42:02;11.82;;;6.00;;
73900;SDS011;62235;52.160;7.526;2023-12-14T04:44:28;9.73;;;5.10;;
73900;SDS011;62235;52.160;7.526;2023-12-14T04:46:55;10.82;;;5.07;;
73900;SDS011;62235;52.160;7.526;2023-12-14T04:49:21;10.45;;;5.63;;
73900;SDS011;62235;52.160;7.526;2023-12-14T04:51:47;13.18;;;5.95;;
73900;SDS011;62235;52.160;7.526;2023-12-14T04:54:13;11.32;;;5.70;;
73900;SDS011;62235;52.160;7.526;2023-12-14T04:56:40;10.52;;;5.63;;
73900;SDS011;62235;52.160;7.526;2023-12-14T04:59:06;11.25;;;5.80;;
73900;SDS011;62235;52.160;7.526;2023-12-14T05:01:33;11.77;;;6.20;;
73900;SDS011;62235;52.160;7.526;2023-12-14T05:04:00;9.85;;;5.53;;
73900;SDS011;62235;52.160;7.526;2023-12-14T05:06:26;10.98;;;5.72;;
73900;SDS011;62235;52.160;7.526;2023-12-14T05:08:52;11.65;;;6.53;;
73900;SDS011;62235;52.160;7.526;2023-12-14T05:11:19;9.95;;;5.57;;
73900;SDS011;62235;52.160;7.526;2023-12-14T05:13:45;11.02;;;5.88;;
73900;SDS011;62235;52.160;7.526;2023-12-14T05:16:14;10.80;;;5.72;;
73900;SDS011;62235;52.160;7.526;2023-12-14T05:18:41;12.35;;;6.65;;
73900;SDS011;62235;52.160;7.526;2023-12-14T05:21:07;12.20;;;6.40;;
73900;SDS011;62235;52.160;7.526;2023-12-14T05:23:33;9.60;;;5.78;;
73900;SDS011;62235;52.160;7.526;2023-12-14T05:26:00;11.27;;;5.63;;
73900;SDS011;62235;52.160;7.526;2023-12-14T05:28:26;10.73;;;5.75;;
73900;SDS011;62235;52.160;7.526;2023-12-14T05:30:52;9.38;;;5.38;;
73900;SDS011;62235;52.160;7.526;2023-12-14T05:33:18;12.00;;;6.32;;
73900;SDS011;62235;52.160;7.526;2023-12-14T05:35:45;12.85;;;6.32;;
73900;SDS011;62235;52.160;7.526;2023-12-14T05:38:11;13.68;;;6.82;;
73900;SDS011;62235;52.160;7.526;2023-12-14T05:40:37;13.65;;;7.05;;
73900;SDS011;62235;52.160;7.526;2023-12-14T05:43:04;16.10;;;7.70;;
73900;SDS011;62235;52.160;7.526;2023-12-14T05:45:30;15.80;;;7.88;;
73900;SDS011;62235;52.160;7.526;2023-12-14T05:47:56;16.40;;;7.55;;
73900;SDS011;62235;52.160;7.526;2023-12-14T05:50:23;15.90;;;7.88;;
73900;SDS011;62235;52.160;7.526;2023-12-14T05:52:49;17.40;;;8.18;;
73900;SDS011;62235;52.160;7.526;2023-12-14T05:55:15;20.25;;;8.98;;
73900;SDS011;62235;52.160;7.526;2023-12-14T05:57:42;21.98;;;10.18;;
73900;SDS011;62235;52.160;7.526;2023-12-14T06:00:08;24.92;;;9.75;;
73900;SDS011;62235;52.160;7.526;2023-12-14T06:02:34;21.95;;;9.88;;
73900;SDS011;62235;52.160;7.526;2023-12-14T06:05:01;20.50;;;9.88;;
73900;SDS011;62235;52.160;7.526;2023-12-14T06:07:28;21.90;;;9.25;;
73900;SDS011;62235;52.160;7.526;2023-12-14T06:09:54;19.90;;;9.23;;
73900;SDS011;62235;52.160;7.526;2023-12-14T06:12:21;19.40;;;8.50;;
73900;SDS011;62235;52.160;7.526;2023-12-14T06:14:47;21.35;;;9.57;;
73900;SDS011;62235;52.160;7.526;2023-12-14T06:17:13;98.47;;;41.42;;
73900;SDS011;62235;52.160;7.526;2023-12-14T06:19:40;49.00;;;25.15;;
73900;SDS011;62235;52.160;7.526;2023-12-14T06:22:06;59.33;;;26.85;;
73900;SDS011;62235;52.160;7.526;2023-12-14T06:24:32;21.00;;;10.05;;
73900;SDS011;62235;52.160;7.526;2023-12-14T06:26:59;19.08;;;9.13;;
73900;SDS011;62235;52.160;7.526;2023-12-14T06:29:26;19.27;;;9.02;;
73900;SDS011;62235;52.160;7.526;2023-12-14T06:31:54;21.00;;;8.88;;
73900;SDS011;62235;52.160;7.526;2023-12-14T06:34:20;14.43;;;7.43;;
73900;SDS011;62235;52.160;7.526;2023-12-14T06:36:46;14.68;;;7.47;;
73900;SDS011;62235;52.160;7.526;2023-12-14T06:39:13;11.70;;;6.53;;
73900;SDS011;62235;52.160;7.526;2023-12-14T06:41:39;12.82;;;6.70;;
73900;SDS011;62235;52.160;7.526;2023-12-14T06:44:05;12.80;;;6.43;;
73900;SDS011;62235;52.160;7.526;2023-12-14T06:46:32;12.85;;;6.43;;
73900;SDS011;62235;52.160;7.526;2023-12-14T06:48:58;10.25;;;5.65;;
73900;SDS011;62235;52.160;7.526;2023-12-14T06:51:24;11.32;;;5.88;;
73900;SDS011;62235;52.160;7.526;2023-12-14T06:53:51;11.75;;;5.85;;
73900;SDS011;62235;52.160;7.526;2023-12-14T06:56:17;11.55;;;5.97;;
73900;SDS011;62235;52.160;7.526;2023-12-14T06:58:44;14.80;;;6.60;;
73900;SDS011;62235;52.160;7.526;2023-12-14T07:01:11;11.35;;;5.75;;
73900;SDS011;62235;52.160;7.526;2023-12-14T07:03:39;12.02;;;6.55;;
73900;SDS011;62235;52.160;7.526;2023-12-14T07:06:06;10.43;;;6.03;;
73900;SDS011;62235;52.160;7.526;2023-12-14T07:08:32;10.90;;;5.82;;
73900;SDS011;62235;52.160;7.526;2023-12-14T07:10:58;11.80;;;5.57;;
73900;SDS011;62235;52.160;7.526;2023-12-14T07:13:25;13.38;;;5.90;;
73900;SDS011;62235;52.160;7.526;2023-12-14T07:15:51;12.38;;;6.70;;
73900;SDS011;62235;52.160;7.526;2023-12-14T07:18:18;12.93;;;6.53;;
73900;SDS011;62235;52.160;7.526;2023-12-14T07:20:44;14.77;;;7.10;;
73900;SDS011;62235;52.160;7.526;2023-12-14T07:23:10;11.07;;;5.95;;
73900;SDS011;62235;52.160;7.526;2023-12-14T07:25:37;13.32;;;6.50;;
73900;SDS011;62235;52.160;7.526;2023-12-14T07:28:03;12.48;;;6.28;;
73900;SDS011;62235;52.160;7.526;2023-12-14T07:30:29;13.32;;;6.60;;
73900;SDS011;62235;52.160;7.526;2023-12-14T07:32:56;13.18;;;6.82;;
73900;SDS011;62235;52.160;7.526;2023-12-14T07:35:22;12.85;;;6.28;;
73900;SDS011;62235;52.160;7.526;2023-12-14T07:37:48;11.38;;;6.35;;
73900;SDS011;62235;52.160;7.526;2023-12-14T07:40:15;15.63;;;7.43;;
73900;SDS011;62235;52.160;7.526;2023-12-14T07:42:41;13.98;;;7.03;;
73900;SDS011;62235;52.160;7.526;2023-12-14T07:45:07;15.23;;;7.55;;
73900;SDS011;62235;52.160;7.526;2023-12-14T07:47:35;14.15;;;7.20;;
73900;SDS011;62235;52.160;7.526;2023-12-14T07:50:01;16.13;;;7.20;;
73900;SDS011;62235;52.160;7.526;2023-12-14T07:52:27;16.83;;;7.60;;
73900;SDS011;62235;52.160;7.526;2023-12-14T07:54:53;12.80;;;6.75;;
73900;SDS011;62235;52.160;7.526;2023-12-14T07:57:20;15.63;;;7.18;;
73900;SDS011;62235;52.160;7.526;2023-12-14T07:59:46;13.43;;;6.90;;
73900;SDS011;62235;52.160;7.526;2023-12-14T08:02:13;14.88;;;7.00;;
73900;SDS011;62235;52.160;7.526;2023-12-14T08:04:39;14.77;;;6.75;;
73900;SDS011;62235;52.160;7.526;2023-12-14T08:07:05;14.82;;;6.80;;
73900;SDS011;62235;52.160;7.526;2023-12-14T08:09:32;15.90;;;7.47;;
73900;SDS011;62235;52.160;7.526;2023-12-14T08:11:58;15.82;;;7.13;;
73900;SDS011;62235;52.160;7.526;2023-12-14T08:14:24;13.85;;;7.47;;
73900;SDS011;62235;52.160;7.526;2023-12-14T08:16:50;14.73;;;7.30;;
73900;SDS011;62235;52.160;7.526;2023-12-14T08:19:17;14.57;;;6.93;;
73900;SDS011;62235;52.160;7.526;2023-12-14T08:21:43;15.48;;;7.68;;
73900;SDS011;62235;52.160;7.526;2023-12-14T08:24:09;13.48;;;6.85;;
73900;SDS011;62235;52.160;7.526;2023-12-14T08:26:36;13.80;;;6.97;;
73900;SDS011;62235;52.160;7.526;2023-12-14T08:29:02;15.50;;;6.90;;
73900;SDS011;62235;52.160;7.526;2023-12-14T08:31:28;14.50;;;7.15;;
73900;SDS011;62235;52.160;7.526;2023-12-14T08:33:54;15.27;;;7.47;;
73900;SDS011;62235;52.160;7.526;2023-12-14T08:36:21;14.52;;;7.10;;
73900;SDS011;62235;52.160;7.526;2023-12-14T08:38:47;14.18;;;7.55;;
73900;SDS011;62235;52.160;7.526;2023-12-14T08:41:14;13.02;;;6.60;;
73900;SDS011;62235;52.160;7.526;2023-12-14T08:43:40;14.05;;;7.60;;
73900;SDS011;62235;52.160;7.526;2023-12-14T08:46:07;11.80;;;6.35;;
73900;SDS011;62235;52.160;7.526;2023-12-14T08:48:33;14.77;;;7.60;;
73900;SDS011;62235;52.160;7.526;2023-12-14T08:51:00;14.25;;;7.60;;
73900;SDS011;62235;52.160;7.526;2023-12-14T08:53:26;13.32;;;7.53;;
73900;SDS011;62235;52.160;7.526;2023-12-14T08:55:52;14.93;;;6.93;;
73900;SDS011;62235;52.160;7.526;2023-12-14T08:58:19;14.25;;;7.53;;
73900;SDS011;62235;52.160;7.526;2023-12-14T09:00:45;13.55;;;7.00;;
73900;SDS011;62235;52.160;7.526;2023-12-14T09:03:11;12.13;;;6.70;;
73900;SDS011;62235;52.160;7.526;2023-12-14T09:05:38;12.10;;;6.65;;
73900;SDS011;62235;52.160;7.526;2023-12-14T09:08:04;11.85;;;6.65;;
73900;SDS011;62235;52.160;7.526;2023-12-14T09:10:31;11.43;;;6.40;;
73900;SDS011;62235;52.160;7.526;2023-12-14T09:12:59;12.30;;;6.93;;
73900;SDS011;62235;52.160;7.526;2023-12-14T09:15:26;12.80;;;6.85;;
73900;SDS011;62235;52.160;7.526;2023-12-14T09:17:52;11.10;;;6.10;;
73900;SDS011;62235;52.160;7.526;2023-12-14T09:20:18;16.88;;;7.70;;
73900;SDS011;62235;52.160;7.526;2023-12-14T09:22:45;11.07;;;6.43;;
73900;SDS011;62235;52.160;7.526;2023-12-14T09:25:11;10.85;;;6.30;;
73900;SDS011;62235;52.160;7.526;2023-12-14T09:27:37;13.00;;;6.97;;
73900;SDS011;62235;52.160;7.526;2023-12-14T09:30:04;11.90;;;6.72;;
73900;SDS011;62235;52.160;7.526;2023-12-14T09:32:31;12.30;;;6.70;;
73900;SDS011;62235;52.160;7.526;2023-12-14T09:34:57;13.25;;;6.95;;
73900;SDS011;62235;52.160;7.526;2023-12-14T09:37:24;12.23;;;6.75;;
73900;SDS011;62235;52.160;7.526;2023-12-14T09:39:50;13.13;;;6.85;;
73900;SDS011;62235;52.160;7.526;2023-12-14T09:42:17;11.48;;;6.32;;
73900;SDS011;62235;52.160;7.526;2023-12-14T09:44:44;9.38;;;5.60;;
73900;SDS011;62235;52.160;7.526;2023-12-14T09:47:11;12.40;;;6.13;;
73900;SDS011;62235;52.160;7.526;2023-12-14T09:49:37;11.30;;;6.47;;
73900;SDS011;62235;52.160;7.526;2023-12-14T09:52:04;12.73;;;6.90;;
73900;SDS011;62235;52.160;7.526;2023-12-14T09:54:31;12.50;;;6.10;;
73900;SDS011;62235;52.160;7.526;2023-12-14T09:56:57;12.85;;;7.00;;
73900;SDS011;62235;52.160;7.526;2023-12-14T09:59:23;12.43;;;6.68;;
73900;SDS011;62235;52.160;7.526;2023-12-14T10:01:49;11.50;;;6.45;;
73900;SDS011;62235;52.160;7.526;2023-12-14T10:04:17;10.35;;;5.72;;
73900;SDS011;62235;52.160;7.526;2023-12-14T10:06:44;10.75;;;6.00;;
73900;SDS011;62235;52.160;7.526;2023-12-14T10:09:11;10.02;;;5.95;;
73900;SDS011;62235;52.160;7.526;2023-12-14T10:11:37;11.15;;;6.13;;
73900;SDS011;62235;52.160;7.526;2023-12-14T10:14:16;12.50;;;6.70;;
73900;SDS011;62235;52.160;7.526;2023-12-14T10:16:43;10.98;;;6.07;;
73900;SDS011;62235;52.160;7.526;2023-12-14T10:19:09;11.55;;;6.18;;
73900;SDS011;62235;52.160;7.526;2023-12-14T10:21:36;12.40;;;6.53;;
73900;SDS011;62235;52.160;7.526;2023-12-14T10:24:02;12.52;;;6.95;;
73900;SDS011;62235;52.160;7.526;2023-12-14T10:26:29;11.85;;;6.43;;
73900;SDS011;62235;52.160;7.526;2023-12-14T10:28:55;10.02;;;5.88;;
73900;SDS011;62235;52.160;7.526;2023-12-14T10:31:21;9.38;;;5.65;;
73900;SDS011;62235;52.160;7.526;2023-12-14T10:33:49;11.20;;;6.97;;
73900;SDS011;62235;52.160;7.526;2023-12-14T10:36:18;10.77;;;6.38;;
73900;SDS011;62235;52.160;7.526;2023-12-14T10:41:11;10.50;;;5.40;;
73900;SDS011;62235;52.160;7.526;2023-12-14T10:43:39;10.70;;;6.40;;
73900;SDS011;62235;52.160;7.526;2023-12-14T10:46:15;12.98;;;6.97;;
73900;SDS011;62235;52.160;7.526;2023-12-14T10:48:43;11.63;;;6.47;;
73900;SDS011;62235;52.160;7.526;2023-12-14T10:51:10;11.55;;;6.68;;
73900;SDS011;62235;52.160;7.526;2023-12-14T10:53:37;13.05;;;6.55;;
73900;SDS011;62235;52.160;7.526;2023-12-14T10:56:04;9.23;;;5.63;;
73900;SDS011;62235;52.160;7.526;2023-12-14T10:59:14;11.98;;;6.53;;
73900;SDS011;62235;52.160;7.526;2023-12-14T11:01:22;13.40;;;6.15;;
73900;SDS011;62235;52.160;7.526;2023-12-14T11:03:48;10.30;;;5.72;;
73900;SDS011;62235;52.160;7.526;2023-12-14T11:06:31;10.43;;;6.07;;
73900;SDS011;62235;52.160;7.526;2023-12-14T11:09:02;11.52;;;5.53;;
73900;SDS011;62235;52.160;7.526;2023-12-14T11:11:30;12.25;;;6.32;;
73900;SDS011;62235;52.160;7.526;2023-12-14T11:13:56;11.10;;;6.03;;
73900;SDS011;62235;52.160;7.526;2023-12-14T11:16:23;10.93;;;6.20;;
73900;SDS011;62235;52.160;7.526;2023-12-14T11:21:36;11.73;;;6.38;;
73900;SDS011;62235;52.160;7.526;2023-12-14T11:24:02;11.27;;;6.47;;
73900;SDS011;62235;52.160;7.526;2023-12-14T11:26:28;11.50;;;6.25;;
73900;SDS011;62235;52.160;7.526;2023-12-14T11:28:55;10.82;;;5.88;;
73900;SDS011;62235;52.160;7.526;2023-12-14T11:31:21;11.00;;;6.63;;
73900;SDS011;62235;52.160;7.526;2023-12-14T11:33:47;12.10;;;6.57;;
73900;SDS011;62235;52.160;7.526;2023-12-14T11:36:14;11.88;;;6.85;;
73900;SDS011;62235;52.160;7.526;2023-12-14T11:38:41;10.82;;;6.40;;
73900;SDS011;62235;52.160;7.526;2023-12-14T11:41:07;12.07;;;6.57;;
73900;SDS011;62235;52.160;7.526;2023-12-14T11:43:43;11.05;;;6.50;;
73900;SDS011;62235;52.160;7.526;2023-12-14T11:46:12;13.52;;;7.10;;
73900;SDS011;62235;52.160;7.526;2023-12-14T11:48:39;11.25;;;6.68;;
73900;SDS011;62235;52.160;7.526;2023-12-14T11:51:06;11.27;;;6.78;;
73900;SDS011;62235;52.160;7.526;2023-12-14T11:53:32;12.10;;;6.72;;
73900;SDS011;62235;52.160;7.526;2023-12-14T11:55:59;13.05;;;7.25;;
73900;SDS011;62235;52.160;7.526;2023-12-14T11:58:25;12.63;;;7.60;;
73900;SDS011;62235;52.160;7.526;2023-12-14T12:00:51;15.07;;;7.55;;
73900;SDS011;62235;52.160;7.526;2023-12-14T12:03:18;14.48;;;7.97;;
73900;SDS011;62235;52.160;7.526;2023-12-14T12:05:48;14.27;;;7.35;;
73900;SDS011;62235;52.160;7.526;2023-12-14T12:08:15;12.50;;;6.65;;
73900;SDS011;62235;52.160;7.526;2023-12-14T12:10:42;13.20;;;7.32;;
73900;SDS011;62235;52.160;7.526;2023-12-14T12:13:13;15.27;;;7.47;;
73900;SDS011;62235;52.160;7.526;2023-12-14T12:15:39;13.98;;;7.30;;
73900;SDS011;62235;52.160;7.526;2023-12-14T12:18:06;12.85;;;7.10;;
73900;SDS011;62235;52.160;7.526;2023-12-14T12:20:33;13.75;;;6.78;;
73900;SDS011;62235;52.160;7.526;2023-12-14T12:22:59;12.93;;;6.78;;
73900;SDS011;62235;52.160;7.526;2023-12-14T12:25:26;13.45;;;7.13;;
73900;SDS011;62235;52.160;7.526;2023-12-14T12:27:52;16.50;;;7.38;;
73900;SDS011;62235;52.160;7.526;2023-12-14T12:30:18;13.32;;;7.07;;
73900;SDS011;62235;52.160;7.526;2023-12-14T12:32:45;14.55;;;7.60;;
73900;SDS011;62235;52.160;7.526;2023-12-14T12:35:11;14.07;;;7.47;;
73900;SDS011;62235;52.160;7.526;2023-12-14T12:37:37;14.50;;;7.35;;
73900;SDS011;62235;52.160;7.526;2023-12-14T12:40:05;14.10;;;7.25;;
73900;SDS011;62235;52.160;7.526;2023-12-14T12:42:31;12.48;;;6.90;;
73900;SDS011;62235;52.160;7.526;2023-12-14T12:44:58;13.48;;;6.90;;
73900;SDS011;62235;52.160;7.526;2023-12-14T12:47:24;12.73;;;7.10;;
73900;SDS011;62235;52.160;7.526;2023-12-14T12:49:51;14.35;;;7.30;;
73900;SDS011;62235;52.160;7.526;2023-12-14T12:52:17;12.93;;;7.07;;
73900;SDS011;62235;52.160;7.526;2023-12-14T12:54:44;14.35;;;7.60;;
73900;SDS011;62235;52.160;7.526;2023-12-14T12:57:10;16.67;;;8.18;;
73900;SDS011;62235;52.160;7.526;2023-12-14T12:59:36;15.15;;;7.45;;
73900;SDS011;62235;52.160;7.526;2023-12-14T13:02:02;13.52;;;6.60;;
73900;SDS011;62235;52.160;7.526;2023-12-14T13:04:31;12.52;;;6.90;;
73900;SDS011;62235;52.160;7.526;2023-12-14T13:06:57;17.38;;;8.00;;
73900;SDS011;62235;52.160;7.526;2023-12-14T13:09:23;13.25;;;7.28;;
73900;SDS011;62235;52.160;7.526;2023-12-14T13:11:50;12.82;;;6.93;;
73900;SDS011;62235;52.160;7.526;2023-12-14T13:14:16;14.38;;;7.60;;
73900;SDS011;62235;52.160;7.526;2023-12-14T13:16:43;14.73;;;7.57;;
73900;SDS011;62235;52.160;7.526;2023-12-14T13:19:10;13.77;;;6.63;;
73900;SDS011;62235;52.160;7.526;2023-12-14T13:21:37;15.38;;;7.60;;
73900;SDS011;62235;52.160;7.526;2023-12-14T13:24:03;12.82;;;6.85;;
73900;SDS011;62235;52.160;7.526;2023-12-14T13:26:30;17.27;;;8.35;;
73900;SDS011;62235;52.160;7.526;2023-12-14T13:28:56;13.90;;;7.05;;
73900;SDS011;62235;52.160;7.526;2023-12-14T13:31:22;15.18;;;6.93;;
73900;SDS011;62235;52.160;7.526;2023-12-14T13:33:49;13.18;;;7.03;;
73900;SDS011;62235;52.160;7.526;2023-12-14T13:36:15;12.85;;;6.85;;
73900;SDS011;62235;52.160;7.526;2023-12-14T13:38:41;13.13;;;6.78;;
73900;SDS011;62235;52.160;7.526;2023-12-14T13:41:08;15.70;;;7.60;;
73900;SDS011;62235;52.160;7.526;2023-12-14T13:43:35;16.33;;;7.68;;
73900;SDS011;62235;52.160;7.526;2023-12-14T13:46:01;12.77;;;6.97;;
73900;SDS011;62235;52.160;7.526;2023-12-14T13:48:45;13.02;;;6.68;;
73900;SDS011;62235;52.160;7.526;2023-12-14T13:51:11;15.65;;;7.43;;
73900;SDS011;62235;52.160;7.526;2023-12-14T13:53:37;12.75;;;6.80;;
73900;SDS011;62235;52.160;7.526;2023-12-14T13:56:04;14.57;;;6.78;;
73900;SDS011;62235;52.160;7.526;2023-12-14T13:58:30;16.27;;;7.13;;
73900;SDS011;62235;52.160;7.526;2023-12-14T14:00:57;13.45;;;6.85;;
73900;SDS011;62235;52.160;7.526;2023-12-14T14:03:23;13.55;;;6.95;;
73900;SDS011;62235;52.160;7.526;2023-12-14T14:05:49;13.43;;;6.82;;
73900;SDS011;62235;52.160;7.526;2023-12-14T14:08:16;17.00;;;7.68;;
73900;SDS011;62235;52.160;7.526;2023-12-14T14:10:43;14.70;;;7.22;;
73900;SDS011;62235;52.160;7.526;2023-12-14T14:13:09;13.82;;;6.85;;
73900;SDS011;62235;52.160;7.526;2023-12-14T14:15:36;12.85;;;6.95;;
73900;SDS011;62235;52.160;7.526;2023-12-14T14:18:02;12.45;;;6.65;;
73900;SDS011;62235;52.160;7.526;2023-12-14T14:20:28;14.82;;;7.97;;
73900;SDS011;62235;52.160;7.526;2023-12-14T14:22:55;14.40;;;7.38;;
73900;SDS011;62235;52.160;7.526;2023-12-14T14:25:21;13.70;;;6.88;;
73900;SDS011;62235;52.160;7.526;2023-12-14T14:27:47;13.52;;;6.70;;
73900;SDS011;62235;52.160;7.526;2023-12-14T14:30:14;15.05;;;7.28;;
73900;SDS011;62235;52.160;7.526;2023-12-14T14:32:40;12.23;;;6.82;;
73900;SDS011;62235;52.160;7.526;2023-12-14T14:35:06;14.35;;;7.07;;
73900;SDS011;62235;52.160;7.526;2023-12-14T14:37:33;14.85;;;7.82;;
73900;SDS011;62235;52.160;7.526;2023-12-14T14:39:59;14.68;;;6.97;;
73900;SDS011;62235;52.160;7.526;2023-12-14T14:42:25;14.90;;;6.97;;